Trepassey, Canada
Current Conditions -  °F | °C
As of 10:00 AM on Thursday 30 Oct 2014 (Local Time) from CWWU Reporting Station
Rain Showers Rain Showers  
Wind Chill: 57°   Ceiling: 1000
Heat Index: 57°   Visibility: 7mi
Dew Point: 55°   Wind: 14mph
Humidity: 94%   Direction: 210°SSW
Pressure: 29.8"   Gusts: 23mph
Location:  46.73°N, 53.37°W
Report Text: CWWU 301200Z 21012G20KT 7SM -SHRA BKN010 OVC015 14/13 A2980 RMKSF6SC2 RETS RERA SLP092
Loading
Personal Weather Stations






























Interactive Weather Map
Tropical Storm Tracking
New forecast layout! Learn more

10-Day Weather Forecast

Advertisements
Track Severe Weather on mobile